Aviation Digital Data Service (ADDS)

Output produced by METARs form (1856 UTC 18 June 2019)
found at http://www.aviationweather.gov/metar/data/
 
KAKR 181754Z AUTO 00000KT 10SM BKN019 BKN025 24/18 A2994 RMK AO2 SLP132 60000 T02390183 10239 20194 58009
KCAK 181851Z 31003KT 8SM BKN021 BKN042 OVC150 24/18 A2993 RMK AO2 SLP126 T02440183 $
KCAK 181742Z 1818/1918 00000KT P6SM OVC050 
     TEMPO 1818/1822 4SM -SHRA OVC015 
     FM182200 00000KT P6SM BKN045 
     TEMPO 1822/1824 4SM -SHRA OVC025 
     FM190000 00000KT P6SM BKN025 
     FM190700 00000KT 1/2SM FG OVC015 
     FM190800 00000KT 1/4SM FG OVC003 
     FM191400 00000KT 5SM BR BKN015
       
KHZY 181853Z AUTO 36005KT 10SM BKN036 23/16 A2994 RMK AO2 SLP134 T02330161
KUNI 181835Z AUTO 00000KT 10SM SCT015 BKN026 OVC043 23/22 A2994 RMK AO2 T02270222
KI69 181837Z AUTO 24003KT 10SM BKN011 24/22 A2993 RMK AO2 T02400217
KEDJ 181835Z AUTO 04004KT 10SM BKN024 24/20 A2993 RMK AO1
KCDI 181835Z AUTO 00000KT 10SM BKN016 OVC026 21/19 A2994 RMK AO2 T02100191
KRZT 181835Z AUTO 23007KT 10SM SCT018 SCT034 OVC046 23/20 A2992 RMK AO2
KCVG 181852Z 22004KT 10SM FEW017 BKN047 BKN075 BKN140 25/21 A2991 RMK AO2 SLP117 TCU DSNT N-NE MDT CU OHD T02500206
KCVG 181752Z 1818/1924 20005KT P6SM VCSH SCT008 OVC035 
     TEMPO 1818/1819 BKN008 
     FM182000 19006KT P6SM -SHRA VCTS SCT020 OVC035CB 
     FM182300 20005KT P6SM BKN035 
     FM190400 20003KT 5SM BR BKN035 
     FM191000 22004KT 4SM BR OVC015 
     FM191300 22005KT P6SM SCT015 OVC035 
     FM191900 23008KT P6SM VCTS BKN035CB
       
KLUK 181853Z 22005KT 10SM BKN027 BKN040 BKN070 27/21 A2990 RMK AO2 SLP120 T02670211
KLUK 181752Z 1818/1918 18004KT P6SM VCSH BKN012 OVC035 
     FM182000 19005KT P6SM -SHRA VCTS SCT020 OVC035CB 
     FM182300 20004KT P6SM BKN035 
     FM190400 20003KT 4SM BR BKN035 
     FM191000 00000KT 2SM BR OVC015 
     FM191300 22005KT P6SM SCT015 OVC035
       
KBKL 181853Z 36008KT 10SM FEW037 21/15 A2993 RMK AO2 SLP132 T02060150
KCLE 181851Z 36009KT 10SM SCT041 BKN250 24/16 A2995 RMK AO2 SLP137 T02390156 $
KCLE 181742Z 1818/1924 36006KT P6SM BKN035 
     FM190300 00000KT P6SM FEW200 
     FM191200 00000KT P6SM FEW060 
     FM191400 00000KT P6SM SCT045 
     FM191700 01005KT P6SM SCT110
       
KCGF 181845Z 36007KT 10SM SCT050 22/14 A2994
KTZR 181847Z 21009G16KT 10SM SCT014 BKN027 OVC050 23/21 A2994
KOSU 181853Z 20004KT 10SM SCT023 SCT028 BKN045 25/19 A2991 RMK AO2 SLP122 T02500194
KCMH 181851Z 23005KT 1/2SM R28L/3500VP6000FT RA FG SCT015 BKN027 OVC047 22/19 A2992 RMK AO2 RAB40 SLP125 P0004 T02220194 $
KCMH 181752Z 1818/1918 20005KT P6SM BKN015 OVC035 
     FM181900 19006KT P6SM VCSH BKN025 
     FM182200 18005KT P6SM BKN035 
     FM190700 00000KT 5SM BR BKN025 
     FM190900 00000KT 3SM BR OVC015 
     FM191300 17003KT P6SM BKN025
       
KLCK 181835Z AUTO 23003KT 5SM -RA SCT035 BKN046 OVC055 21/21 A2993 RMK AO2 T02100207
KLCK 181752Z 1818/1918 19007KT P6SM -SHRA SCT010 OVC025 
     FM182200 18005KT P6SM BKN035 
     FM190700 00000KT 5SM BR BKN025 
     FM190900 00000KT 3SM BR OVC015 
     FM191300 17003KT P6SM BKN025
       
KMGY 181853Z AUTO 18004KT 10SM BKN019 OVC026 25/20 A2990 RMK AO2 SLP119 T02500200
KI19 181838Z AUTO 00000KT 10SM SCT011 SCT032 24/20 A2993 RMK AO2 T02410203
KDAY 181756Z COR VRB03KT 7SM SCT022 BKN150 25/19 A2994 RMK AO2 SLP131 MDT CU OHD ALQDS TCU DSNT N-E SE-S W T02500189 10256 20200 58009
KDAY 181752Z 1818/1918 18005KT P6SM SCT020 OVC035 
     FM182000 19005KT P6SM -SHRA VCTS BKN025 OVC035CB 
     FM182300 17004KT P6SM BKN035 
     FM190300 00000KT 5SM BR BKN035 
     FM190800 00000KT 3SM BR OVC025 
     FM191300 20004KT P6SM SCT025 OVC035
       
KDFI 181853Z AUTO 15003KT 10SM BKN037 BKN060 25/16 A2993 RMK AO2 SLP131 T02500156
KDLZ 181835Z AUTO 00000KT 10SM CLR 23/19 A2993 RMK AO2
KFDY 181853Z AUTO VRB03KT 10SM SCT038 26/16 A2991 RMK AO2 SLP121 T02610161
KFDY 181742Z 1818/1918 06004KT P6SM BKN040 
     FM190000 06004KT P6SM SCT070 
     FM190300 09004KT P6SM FEW250 
     FM191700 00000KT P6SM SCT110
       
KHAO 181853Z AUTO 36006KT 1 3/4SM RA BR BKN021 OVC033 23/22 A2991 RMK AO2 RAB31 SLP125 P0008 T02280222
KI67 181855Z AUTO 20004KT 10SM SCT041 SCT060 25/19 A2990 RMK AO1
KI43 181855Z AUTO 21010KT 7SM RA SCT018 BKN025 BKN031 22/20 A2995 RMK AO2 P0001
KLHQ 181853Z AUTO 27005KT 10SM OVC090 23/21 A2993 RMK AO2 RAE29 SLP128 P0001 T02330211
KI68 181855Z AUTO 32003KT 1 1/2SM +RA SCT009 OVC019 22/22 A2992 RMK AO1 T02220222
KAOH 181853Z AUTO 00000KT 10SM FEW030 BKN038 24/18 A2993 RMK AO2 SLP127 T02440178
KUYF 181835Z AUTO 21007KT 10SM BKN017 OVC024 23/21 A2992 RMK AO2
KLPR 181853Z AUTO 02008KT 10SM OVC037 24/14 A2993 RMK AO2 SLP132 T02440144
KMFD 181852Z 04005KT 10SM SCT024 SCT029 OVC040 23/19 A2994 RMK AO2 SLP130 T02280189
KMFD 181742Z 1818/1918 00000KT P6SM VCSH OVC012 
     FM181900 00000KT P6SM OVC035 
     TEMPO 1819/1822 6SM -SHRA BKN015 
     FM182200 VRB03KT P6SM BKN070 
     FM190900 00000KT 2SM BR BKN020 
     FM191400 00000KT P6SM BKN015
       
KMNN 181853Z AUTO 00000KT 10SM SCT023 BKN039 OVC055 24/18 A2993 RMK AO2 SLP130 T02440183 $
KMRT 181836Z AUTO 24005KT 10SM SCT020 BKN028 BKN039 25/20 A2993 RMK AO2 P0001 T02470197
KMWO 181835Z AUTO 20005KT 10SM OVC070 24/21 A2992 RMK AO2 T02410214
K4I3 181836Z AUTO 21006KT 10SM SCT035 SCT060 25/21 A2995 RMK AO2
KVTA 181754Z AUTO 00000KT 10SM SCT021 BKN026 25/19 A2993 RMK AO2 SLP129 60000 T02500194 10250 20206 58010
KPHD 181853Z AUTO 18004KT 10SM FEW010 SCT029 BKN041 23/21 A2993 RMK AO2 RAB06E27 SLP128 P0003 T02330206
KOWX 181835Z AUTO 00000KT 10SM SCT036 BKN044 OVC050 23/15 A2995 RMK AO1
KOXD 181835Z AUTO 17006KT 10SM SCT015 SCT031 BKN060 25/23 A2991 RMK AO2 T02460232
KPCW 181835Z AUTO 06007KT 10SM CLR 23/15 A2994 RMK AO2
KPMH 181836Z AUTO 19003KT 1 1/4SM +RA BKN010 BKN016 OVC026 19/19 A2995 RMK AO2 P0029 T01910191
KPOV 181836Z AUTO 00000KT 10SM BKN024 OVC031 23/16 A2994 RMK AO2 T02280164 PWINO
KSGH 181833Z AUTO 17004KT 10SM FEW017 BKN043 BKN065 23/21 A2993 RMK AO2
KTDZ 181853Z AUTO 07005KT 10SM BKN049 24/16 A2994 RMK AO2 SLP136 T02390156 $
KTOL 181852Z VRB04KT 10SM BKN040 BKN047 25/16 A2993 RMK AO2 SLP132 T02500156 $
KTOL 181742Z 1818/1918 08004KT P6SM BKN040 
     FM190000 10004KT P6SM FEW150 
     FM190600 00000KT P6SM SCT250 
     FM191700 00000KT P6SM SCT060
       
KI74 181835Z AUTO 00000KT 10SM SCT025 BKN032 24/19 A2993 RMK AO2
KVNW 181855Z AUTO 07004KT SCT035 OVC055 25/15 A2993 RMK AO2 PWINO
KVES 181830Z AUTO 00000KT 7SM SCT027 BKN042 OVC055 25/21 A2992 RMK AO2
KAXV 181836Z AUTO 00000KT 10SM BKN029 BKN037 OVC044 24/18 A2993 RMK AO2
KI23 181839Z AUTO 24005KT 10SM SCT017 SCT022 BKN028 23/19 A2992 RMK AO1
KUSE 181840Z AUTO 34004KT 9SM FEW049 25/19 A2994 RMK AO2
KLNN 181835Z AUTO 35006KT 10SM CLR 21/13 A2994 RMK AO1 T02110131
KILN 181819Z AUTO 23008KT 10SM FEW012 SCT018 OVC035 23/21 A2992 RMK AO2 T02330206
KILN 181752Z 1818/1918 20005KT P6SM SCT015 OVC035 
     FM182000 18005KT P6SM -SHRA BKN025 OVC035 
     FM182300 17004KT P6SM BKN035 
     FM190300 00000KT 5SM BR BKN035 
     FM190800 00000KT 3SM BR OVC015 
     FM191300 21004KT P6SM SCT025 OVC035
       
KBJJ 181852Z AUTO 33003KT 10SM BKN022 23/18 A2993 RMK AO2
KYNG 181851Z VRB03KT 10SM BKN021 BKN160 OVC250 24/18 A2993 RMK AO2 SLP128 T02390178 $
KYNG 181742Z 1818/1918 00000KT P6SM BKN012 OVC040 
     TEMPO 1820/1824 4SM -SHRA BKN008 OVC025 
     FM190000 00000KT P6SM BKN050 
     TEMPO 1900/1903 -SHRA 
     FM190700 00000KT 1/2SM FG BKN015 
     FM191000 00000KT 1/4SM FG BKN003 
     FM191300 00000KT 3SM BR OVC003 
     FM191700 00000KT P6SM BKN020
       
KZZV 181853Z AUTO 19007KT 10SM SCT008 BKN012 OVC110 23/20 A2993 RMK AO2 RAB24E35 SLP128 P0001 T02280200
KZZV 181735Z 1818/1918 19005KT P6SM VCSH OVC020 
     TEMPO 1818/1820 3SM -SHRA OVC015 
     FM182300 20003KT P6SM VCSH OVC025 
     FM190400 00000KT 6SM BR VCSH BKN015 
     FM191000 00000KT 2SM BR VCSH OVC004 
     FM191400 00000KT 5SM BR VCSH BKN006